sensor_id;sensor_type;location;lat;lon;timestamp;P1;durP1;ratioP1;P2;durP2;ratioP2
69414;SDS011;56608;43.530;-5.652;2023-06-04T00:00:21;22.53;;;11.43;;
69414;SDS011;56608;43.530;-5.652;2023-06-04T00:01:23;16.30;;;11.27;;
69414;SDS011;56608;43.530;-5.652;2023-06-04T00:02:24;15.70;;;10.68;;
69414;SDS011;56608;43.530;-5.652;2023-06-04T00:04:27;15.82;;;10.63;;
69414;SDS011;56608;43.530;-5.652;2023-06-04T00:05:28;20.70;;;11.85;;
69414;SDS011;56608;43.530;-5.652;2023-06-04T00:06:29;17.40;;;11.20;;
69414;SDS011;56608;43.530;-5.652;2023-06-04T00:07:31;21.67;;;12.77;;
69414;SDS011;56608;43.530;-5.652;2023-06-04T00:08:31;18.20;;;11.25;;
69414;SDS011;56608;43.530;-5.652;2023-06-04T00:09:32;20.27;;;11.33;;
69414;SDS011;56608;43.530;-5.652;2023-06-04T00:10:34;15.80;;;11.93;;
69414;SDS011;56608;43.530;-5.652;2023-06-04T00:11:35;22.55;;;11.27;;
69414;SDS011;56608;43.530;-5.652;2023-06-04T00:12:37;17.53;;;11.10;;
69414;SDS011;56608;43.530;-5.652;2023-06-04T00:13:38;21.10;;;12.02;;
69414;SDS011;56608;43.530;-5.652;2023-06-04T00:14:40;17.27;;;11.57;;
69414;SDS011;56608;43.530;-5.652;2023-06-04T00:16:43;19.15;;;11.68;;
69414;SDS011;56608;43.530;-5.652;2023-06-04T00:17:44;16.00;;;11.55;;
69414;SDS011;56608;43.530;-5.652;2023-06-04T00:18:45;16.85;;;11.73;;
69414;SDS011;56608;43.530;-5.652;2023-06-04T00:19:47;19.15;;;12.23;;
69414;SDS011;56608;43.530;-5.652;2023-06-04T00:20:48;19.43;;;12.47;;
69414;SDS011;56608;43.530;-5.652;2023-06-04T00:21:50;17.23;;;10.93;;
69414;SDS011;56608;43.530;-5.652;2023-06-04T00:22:51;15.95;;;11.25;;
69414;SDS011;56608;43.530;-5.652;2023-06-04T00:23:52;18.20;;;11.30;;
69414;SDS011;56608;43.530;-5.652;2023-06-04T00:24:54;15.75;;;11.25;;
69414;SDS011;56608;43.530;-5.652;2023-06-04T00:25:55;17.30;;;11.80;;
69414;SDS011;56608;43.530;-5.652;2023-06-04T00:26:57;19.10;;;12.20;;
69414;SDS011;56608;43.530;-5.652;2023-06-04T00:27:57;16.33;;;11.40;;
69414;SDS011;56608;43.530;-5.652;2023-06-04T00:28:58;17.47;;;11.47;;
69414;SDS011;56608;43.530;-5.652;2023-06-04T00:30:00;16.23;;;11.97;;
69414;SDS011;56608;43.530;-5.652;2023-06-04T00:31:04;15.60;;;10.97;;
69414;SDS011;56608;43.530;-5.652;2023-06-04T00:32:05;18.60;;;11.97;;
69414;SDS011;56608;43.530;-5.652;2023-06-04T00:33:07;15.47;;;11.53;;
69414;SDS011;56608;43.530;-5.652;2023-06-04T00:34:09;16.05;;;11.55;;
69414;SDS011;56608;43.530;-5.652;2023-06-04T00:35:11;17.30;;;11.63;;
69414;SDS011;56608;43.530;-5.652;2023-06-04T00:36:13;16.23;;;11.73;;
69414;SDS011;56608;43.530;-5.652;2023-06-04T00:37:13;15.30;;;12.20;;
69414;SDS011;56608;43.530;-5.652;2023-06-04T00:38:15;16.87;;;11.57;;
69414;SDS011;56608;43.530;-5.652;2023-06-04T00:39:16;14.38;;;11.68;;
69414;SDS011;56608;43.530;-5.652;2023-06-04T00:40:17;15.25;;;11.90;;
69414;SDS011;56608;43.530;-5.652;2023-06-04T00:41:19;20.52;;;12.75;;
69414;SDS011;56608;43.530;-5.652;2023-06-04T00:42:20;20.90;;;12.85;;
69414;SDS011;56608;43.530;-5.652;2023-06-04T00:43:21;17.50;;;11.80;;
69414;SDS011;56608;43.530;-5.652;2023-06-04T00:44:25;20.07;;;12.47;;
69414;SDS011;56608;43.530;-5.652;2023-06-04T00:45:26;18.30;;;12.90;;
69414;SDS011;56608;43.530;-5.652;2023-06-04T00:46:32;16.67;;;12.07;;
69414;SDS011;56608;43.530;-5.652;2023-06-04T00:47:33;19.47;;;12.73;;
69414;SDS011;56608;43.530;-5.652;2023-06-04T00:49:38;18.40;;;12.10;;
69414;SDS011;56608;43.530;-5.652;2023-06-04T00:50:38;18.20;;;12.50;;
69414;SDS011;56608;43.530;-5.652;2023-06-04T00:51:39;16.80;;;11.75;;
69414;SDS011;56608;43.530;-5.652;2023-06-04T00:52:40;15.90;;;12.10;;
69414;SDS011;56608;43.530;-5.652;2023-06-04T00:53:41;18.07;;;12.07;;
69414;SDS011;56608;43.530;-5.652;2023-06-04T00:54:42;20.85;;;12.55;;
69414;SDS011;56608;43.530;-5.652;2023-06-04T00:55:44;17.50;;;12.13;;
69414;SDS011;56608;43.530;-5.652;2023-06-04T00:56:46;17.58;;;12.27;;
69414;SDS011;56608;43.530;-5.652;2023-06-04T00:57:48;16.67;;;12.33;;
69414;SDS011;56608;43.530;-5.652;2023-06-04T00:58:50;18.92;;;12.02;;
69414;SDS011;56608;43.530;-5.652;2023-06-04T00:59:52;15.30;;;12.25;;
69414;SDS011;56608;43.530;-5.652;2023-06-04T01:00:53;21.80;;;12.27;;
69414;SDS011;56608;43.530;-5.652;2023-06-04T01:03:18;19.97;;;12.23;;
69414;SDS011;56608;43.530;-5.652;2023-06-04T01:04:32;22.33;;;12.93;;
69414;SDS011;56608;43.530;-5.652;2023-06-04T01:06:39;19.25;;;12.05;;
69414;SDS011;56608;43.530;-5.652;2023-06-04T01:07:44;20.55;;;12.85;;
69414;SDS011;56608;43.530;-5.652;2023-06-04T01:08:49;21.00;;;12.10;;
69414;SDS011;56608;43.530;-5.652;2023-06-04T01:09:51;20.60;;;12.15;;
69414;SDS011;56608;43.530;-5.652;2023-06-04T01:10:52;19.25;;;12.50;;
69414;SDS011;56608;43.530;-5.652;2023-06-04T01:11:53;24.45;;;12.60;;
69414;SDS011;56608;43.530;-5.652;2023-06-04T01:12:54;21.30;;;12.60;;
69414;SDS011;56608;43.530;-5.652;2023-06-04T01:13:55;19.10;;;12.10;;
69414;SDS011;56608;43.530;-5.652;2023-06-04T01:14:55;17.60;;;12.30;;
69414;SDS011;56608;43.530;-5.652;2023-06-04T01:15:56;21.93;;;12.40;;
69414;SDS011;56608;43.530;-5.652;2023-06-04T01:17:01;17.95;;;12.50;;
69414;SDS011;56608;43.530;-5.652;2023-06-04T01:18:09;19.27;;;12.87;;
69414;SDS011;56608;43.530;-5.652;2023-06-04T01:19:37;17.83;;;12.90;;
69414;SDS011;56608;43.530;-5.652;2023-06-04T01:20:37;20.15;;;12.75;;
69414;SDS011;56608;43.530;-5.652;2023-06-04T01:21:42;20.90;;;12.15;;
69414;SDS011;56608;43.530;-5.652;2023-06-04T01:24:00;22.15;;;13.50;;
69414;SDS011;56608;43.530;-5.652;2023-06-04T01:25:02;20.00;;;13.50;;
69414;SDS011;56608;43.530;-5.652;2023-06-04T01:26:04;20.65;;;12.45;;
69414;SDS011;56608;43.530;-5.652;2023-06-04T01:27:06;26.42;;;13.75;;
69414;SDS011;56608;43.530;-5.652;2023-06-04T01:28:08;19.50;;;12.70;;
69414;SDS011;56608;43.530;-5.652;2023-06-04T01:29:14;16.77;;;12.17;;
69414;SDS011;56608;43.530;-5.652;2023-06-04T01:30:16;23.80;;;13.88;;
69414;SDS011;56608;43.530;-5.652;2023-06-04T01:31:17;23.35;;;14.10;;
69414;SDS011;56608;43.530;-5.652;2023-06-04T01:32:23;20.30;;;12.85;;
69414;SDS011;56608;43.530;-5.652;2023-06-04T01:33:25;17.95;;;12.10;;
69414;SDS011;56608;43.530;-5.652;2023-06-04T01:34:25;22.50;;;12.90;;
69414;SDS011;56608;43.530;-5.652;2023-06-04T01:35:27;22.15;;;13.85;;
69414;SDS011;56608;43.530;-5.652;2023-06-04T01:36:28;21.60;;;13.20;;
69414;SDS011;56608;43.530;-5.652;2023-06-04T01:37:28;19.10;;;13.20;;
69414;SDS011;56608;43.530;-5.652;2023-06-04T01:38:29;21.25;;;13.45;;
69414;SDS011;56608;43.530;-5.652;2023-06-04T01:39:30;24.80;;;13.15;;
69414;SDS011;56608;43.530;-5.652;2023-06-04T01:40:31;20.00;;;12.70;;
69414;SDS011;56608;43.530;-5.652;2023-06-04T01:41:32;28.00;;;13.10;;
69414;SDS011;56608;43.530;-5.652;2023-06-04T01:42:34;20.55;;;12.95;;
69414;SDS011;56608;43.530;-5.652;2023-06-04T01:43:35;22.30;;;13.40;;
69414;SDS011;56608;43.530;-5.652;2023-06-04T01:44:36;24.65;;;13.80;;
69414;SDS011;56608;43.530;-5.652;2023-06-04T01:45:37;19.80;;;13.55;;
69414;SDS011;56608;43.530;-5.652;2023-06-04T01:46:38;21.80;;;13.30;;
69414;SDS011;56608;43.530;-5.652;2023-06-04T01:47:39;21.60;;;13.35;;
69414;SDS011;56608;43.530;-5.652;2023-06-04T01:48:40;19.05;;;13.85;;
69414;SDS011;56608;43.530;-5.652;2023-06-04T01:49:41;22.97;;;12.97;;
69414;SDS011;56608;43.530;-5.652;2023-06-04T01:50:43;23.65;;;12.82;;
69414;SDS011;56608;43.530;-5.652;2023-06-04T01:51:44;22.98;;;13.18;;
69414;SDS011;56608;43.530;-5.652;2023-06-04T01:52:45;21.80;;;13.05;;
69414;SDS011;56608;43.530;-5.652;2023-06-04T01:53:45;19.70;;;12.50;;
69414;SDS011;56608;43.530;-5.652;2023-06-04T01:54:46;20.00;;;12.60;;
69414;SDS011;56608;43.530;-5.652;2023-06-04T01:55:49;19.30;;;12.40;;
69414;SDS011;56608;43.530;-5.652;2023-06-04T01:56:50;24.63;;;13.70;;
69414;SDS011;56608;43.530;-5.652;2023-06-04T01:57:51;21.55;;;13.35;;
69414;SDS011;56608;43.530;-5.652;2023-06-04T01:58:52;16.75;;;12.30;;
69414;SDS011;56608;43.530;-5.652;2023-06-04T01:59:53;19.70;;;12.87;;
69414;SDS011;56608;43.530;-5.652;2023-06-04T02:00:54;20.62;;;13.15;;
69414;SDS011;56608;43.530;-5.652;2023-06-04T02:01:57;22.70;;;13.87;;
69414;SDS011;56608;43.530;-5.652;2023-06-04T02:02:58;19.83;;;12.30;;
69414;SDS011;56608;43.530;-5.652;2023-06-04T02:03:59;23.05;;;14.20;;
69414;SDS011;56608;43.530;-5.652;2023-06-04T02:05:00;19.50;;;13.65;;
69414;SDS011;56608;43.530;-5.652;2023-06-04T02:06:02;21.13;;;13.77;;
69414;SDS011;56608;43.530;-5.652;2023-06-04T02:07:05;16.25;;;12.40;;
69414;SDS011;56608;43.530;-5.652;2023-06-04T02:08:07;17.80;;;12.25;;
69414;SDS011;56608;43.530;-5.652;2023-06-04T02:09:10;27.37;;;13.67;;
69414;SDS011;56608;43.530;-5.652;2023-06-04T02:10:12;19.62;;;13.27;;
69414;SDS011;56608;43.530;-5.652;2023-06-04T02:11:13;19.40;;;12.30;;
69414;SDS011;56608;43.530;-5.652;2023-06-04T02:12:15;17.60;;;12.25;;
69414;SDS011;56608;43.530;-5.652;2023-06-04T02:13:16;21.20;;;13.10;;
69414;SDS011;56608;43.530;-5.652;2023-06-04T02:14:17;23.10;;;12.70;;
69414;SDS011;56608;43.530;-5.652;2023-06-04T02:15:18;20.40;;;12.25;;
69414;SDS011;56608;43.530;-5.652;2023-06-04T02:16:19;21.25;;;13.20;;
69414;SDS011;56608;43.530;-5.652;2023-06-04T02:17:20;18.73;;;13.13;;
69414;SDS011;56608;43.530;-5.652;2023-06-04T02:18:21;19.00;;;12.75;;
69414;SDS011;56608;43.530;-5.652;2023-06-04T02:19:26;19.73;;;13.33;;
69414;SDS011;56608;43.530;-5.652;2023-06-04T02:20:28;19.33;;;12.70;;
69414;SDS011;56608;43.530;-5.652;2023-06-04T02:22:30;18.20;;;12.40;;
69414;SDS011;56608;43.530;-5.652;2023-06-04T02:23:31;23.80;;;13.60;;
69414;SDS011;56608;43.530;-5.652;2023-06-04T02:24:32;19.60;;;13.15;;
69414;SDS011;56608;43.530;-5.652;2023-06-04T02:25:33;18.13;;;12.80;;
69414;SDS011;56608;43.530;-5.652;2023-06-04T02:26:34;24.25;;;12.75;;
69414;SDS011;56608;43.530;-5.652;2023-06-04T02:28:37;19.80;;;11.65;;
69414;SDS011;56608;43.530;-5.652;2023-06-04T02:29:39;20.73;;;12.20;;
69414;SDS011;56608;43.530;-5.652;2023-06-04T02:30:40;18.60;;;12.30;;
69414;SDS011;56608;43.530;-5.652;2023-06-04T02:31:40;19.75;;;12.10;;
69414;SDS011;56608;43.530;-5.652;2023-06-04T02:32:42;20.93;;;12.80;;
69414;SDS011;56608;43.530;-5.652;2023-06-04T02:33:44;21.90;;;12.50;;
69414;SDS011;56608;43.530;-5.652;2023-06-04T02:34:45;19.00;;;12.40;;
69414;SDS011;56608;43.530;-5.652;2023-06-04T02:35:46;21.47;;;12.80;;
69414;SDS011;56608;43.530;-5.652;2023-06-04T02:36:48;20.60;;;12.90;;
69414;SDS011;56608;43.530;-5.652;2023-06-04T02:37:50;18.80;;;12.90;;
69414;SDS011;56608;43.530;-5.652;2023-06-04T02:38:52;18.33;;;12.80;;
69414;SDS011;56608;43.530;-5.652;2023-06-04T02:39:53;17.00;;;12.52;;
69414;SDS011;56608;43.530;-5.652;2023-06-04T02:40:54;22.73;;;13.18;;
69414;SDS011;56608;43.530;-5.652;2023-06-04T02:41:56;21.70;;;13.20;;
69414;SDS011;56608;43.530;-5.652;2023-06-04T02:42:57;23.58;;;13.57;;
69414;SDS011;56608;43.530;-5.652;2023-06-04T02:43:59;22.80;;;13.05;;
69414;SDS011;56608;43.530;-5.652;2023-06-04T02:45:00;20.60;;;13.20;;
69414;SDS011;56608;43.530;-5.652;2023-06-04T02:46:02;22.08;;;13.25;;
69414;SDS011;56608;43.530;-5.652;2023-06-04T02:47:02;20.60;;;13.45;;
69414;SDS011;56608;43.530;-5.652;2023-06-04T02:48:03;16.70;;;13.00;;
69414;SDS011;56608;43.530;-5.652;2023-06-04T02:49:04;21.15;;;13.20;;
69414;SDS011;56608;43.530;-5.652;2023-06-04T02:50:05;21.35;;;12.60;;
69414;SDS011;56608;43.530;-5.652;2023-06-04T02:51:07;19.63;;;13.33;;
69414;SDS011;56608;43.530;-5.652;2023-06-04T02:52:10;20.30;;;12.95;;
69414;SDS011;56608;43.530;-5.652;2023-06-04T02:53:10;24.77;;;14.40;;
69414;SDS011;56608;43.530;-5.652;2023-06-04T02:54:11;20.15;;;13.40;;
69414;SDS011;56608;43.530;-5.652;2023-06-04T02:55:13;17.67;;;12.73;;
69414;SDS011;56608;43.530;-5.652;2023-06-04T02:56:14;21.10;;;12.93;;
69414;SDS011;56608;43.530;-5.652;2023-06-04T02:57:15;19.95;;;12.80;;
69414;SDS011;56608;43.530;-5.652;2023-06-04T02:58:16;20.80;;;12.25;;
69414;SDS011;56608;43.530;-5.652;2023-06-04T02:59:18;22.43;;;12.80;;
69414;SDS011;56608;43.530;-5.652;2023-06-04T03:00:20;23.02;;;13.80;;
69414;SDS011;56608;43.530;-5.652;2023-06-04T03:01:25;18.67;;;12.23;;
69414;SDS011;56608;43.530;-5.652;2023-06-04T03:02:27;19.83;;;13.43;;
69414;SDS011;56608;43.530;-5.652;2023-06-04T03:03:29;20.73;;;13.05;;
69414;SDS011;56608;43.530;-5.652;2023-06-04T03:04:31;18.85;;;13.00;;
69414;SDS011;56608;43.530;-5.652;2023-06-04T03:05:35;19.27;;;13.43;;
69414;SDS011;56608;43.530;-5.652;2023-06-04T03:06:37;19.90;;;13.00;;
69414;SDS011;56608;43.530;-5.652;2023-06-04T03:07:45;20.50;;;13.75;;
69414;SDS011;56608;43.530;-5.652;2023-06-04T03:08:47;20.45;;;13.65;;
69414;SDS011;56608;43.530;-5.652;2023-06-04T03:09:49;23.20;;;14.30;;
69414;SDS011;56608;43.530;-5.652;2023-06-04T03:10:50;20.45;;;12.60;;
69414;SDS011;56608;43.530;-5.652;2023-06-04T03:11:50;20.40;;;13.00;;
69414;SDS011;56608;43.530;-5.652;2023-06-04T03:12:51;19.70;;;13.00;;
69414;SDS011;56608;43.530;-5.652;2023-06-04T03:13:52;20.60;;;13.60;;
69414;SDS011;56608;43.530;-5.652;2023-06-04T03:14:53;20.25;;;13.40;;
69414;SDS011;56608;43.530;-5.652;2023-06-04T03:15:54;19.20;;;13.35;;
69414;SDS011;56608;43.530;-5.652;2023-06-04T03:16:55;23.20;;;14.75;;
69414;SDS011;56608;43.530;-5.652;2023-06-04T03:17:56;26.95;;;16.15;;
69414;SDS011;56608;43.530;-5.652;2023-06-04T03:18:57;23.50;;;15.75;;
69414;SDS011;56608;43.530;-5.652;2023-06-04T03:19:58;21.05;;;15.55;;
69414;SDS011;56608;43.530;-5.652;2023-06-04T03:21:00;24.87;;;14.82;;
69414;SDS011;56608;43.530;-5.652;2023-06-04T03:22:01;19.17;;;13.45;;
69414;SDS011;56608;43.530;-5.652;2023-06-04T03:23:05;20.60;;;12.50;;
69414;SDS011;56608;43.530;-5.652;2023-06-04T03:24:06;18.05;;;13.50;;
69414;SDS011;56608;43.530;-5.652;2023-06-04T03:25:07;19.25;;;13.25;;
69414;SDS011;56608;43.530;-5.652;2023-06-04T03:26:08;19.00;;;13.30;;
69414;SDS011;56608;43.530;-5.652;2023-06-04T03:27:09;22.75;;;12.30;;
69414;SDS011;56608;43.530;-5.652;2023-06-04T03:28:10;22.80;;;13.50;;
69414;SDS011;56608;43.530;-5.652;2023-06-04T03:29:11;20.40;;;13.10;;
69414;SDS011;56608;43.530;-5.652;2023-06-04T03:30:12;20.60;;;13.45;;
69414;SDS011;56608;43.530;-5.652;2023-06-04T03:31:12;19.60;;;13.00;;
69414;SDS011;56608;43.530;-5.652;2023-06-04T03:32:13;20.80;;;12.70;;
69414;SDS011;56608;43.530;-5.652;2023-06-04T03:33:14;18.25;;;12.70;;
69414;SDS011;56608;43.530;-5.652;2023-06-04T03:34:15;24.97;;;13.40;;
69414;SDS011;56608;43.530;-5.652;2023-06-04T03:35:16;18.90;;;13.25;;
69414;SDS011;56608;43.530;-5.652;2023-06-04T03:36:17;18.90;;;12.90;;
69414;SDS011;56608;43.530;-5.652;2023-06-04T03:37:18;17.95;;;12.55;;
69414;SDS011;56608;43.530;-5.652;2023-06-04T03:38:19;20.20;;;13.10;;
69414;SDS011;56608;43.530;-5.652;2023-06-04T03:39:20;20.80;;;13.20;;
69414;SDS011;56608;43.530;-5.652;2023-06-04T03:40:20;21.95;;;13.35;;
69414;SDS011;56608;43.530;-5.652;2023-06-04T03:41:21;23.10;;;13.95;;
69414;SDS011;56608;43.530;-5.652;2023-06-04T03:42:22;17.00;;;12.00;;
69414;SDS011;56608;43.530;-5.652;2023-06-04T03:43:23;24.00;;;13.65;;
69414;SDS011;56608;43.530;-5.652;2023-06-04T03:44:24;18.40;;;13.65;;
69414;SDS011;56608;43.530;-5.652;2023-06-04T03:45:26;21.20;;;14.05;;
69414;SDS011;56608;43.530;-5.652;2023-06-04T03:46:26;19.70;;;13.25;;
69414;SDS011;56608;43.530;-5.652;2023-06-04T03:47:31;19.70;;;13.60;;
69414;SDS011;56608;43.530;-5.652;2023-06-04T03:48:32;18.10;;;12.80;;
69414;SDS011;56608;43.530;-5.652;2023-06-04T03:49:32;16.80;;;12.80;;
69414;SDS011;56608;43.530;-5.652;2023-06-04T03:50:33;20.45;;;13.60;;
69414;SDS011;56608;43.530;-5.652;2023-06-04T03:51:35;22.80;;;13.30;;
69414;SDS011;56608;43.530;-5.652;2023-06-04T03:52:36;21.90;;;13.55;;
69414;SDS011;56608;43.530;-5.652;2023-06-04T03:53:37;18.70;;;13.90;;
69414;SDS011;56608;43.530;-5.652;2023-06-04T03:54:37;17.20;;;13.10;;
69414;SDS011;56608;43.530;-5.652;2023-06-04T03:55:38;19.90;;;13.50;;
69414;SDS011;56608;43.530;-5.652;2023-06-04T03:56:39;19.50;;;13.60;;
69414;SDS011;56608;43.530;-5.652;2023-06-04T03:57:40;21.25;;;14.85;;
69414;SDS011;56608;43.530;-5.652;2023-06-04T03:58:41;24.65;;;14.80;;
69414;SDS011;56608;43.530;-5.652;2023-06-04T03:59:41;21.20;;;14.00;;
69414;SDS011;56608;43.530;-5.652;2023-06-04T04:00:42;19.00;;;13.60;;
69414;SDS011;56608;43.530;-5.652;2023-06-04T04:01:43;21.50;;;14.00;;
69414;SDS011;56608;43.530;-5.652;2023-06-04T04:02:43;26.43;;;15.37;;
69414;SDS011;56608;43.530;-5.652;2023-06-04T04:03:44;22.95;;;13.75;;
69414;SDS011;56608;43.530;-5.652;2023-06-04T04:04:48;18.95;;;13.65;;
69414;SDS011;56608;43.530;-5.652;2023-06-04T04:05:49;19.10;;;14.20;;
69414;SDS011;56608;43.530;-5.652;2023-06-04T04:06:50;19.20;;;14.15;;
69414;SDS011;56608;43.530;-5.652;2023-06-04T04:07:51;19.10;;;13.10;;
69414;SDS011;56608;43.530;-5.652;2023-06-04T04:08:52;20.35;;;14.30;;
69414;SDS011;56608;43.530;-5.652;2023-06-04T04:09:53;21.70;;;14.45;;
69414;SDS011;56608;43.530;-5.652;2023-06-04T04:10:54;19.90;;;14.40;;
69414;SDS011;56608;43.530;-5.652;2023-06-04T04:11:56;17.15;;;12.80;;
69414;SDS011;56608;43.530;-5.652;2023-06-04T04:12:57;18.80;;;13.57;;
69414;SDS011;56608;43.530;-5.652;2023-06-04T04:13:59;23.05;;;14.43;;
69414;SDS011;56608;43.530;-5.652;2023-06-04T04:15:00;18.90;;;13.65;;
69414;SDS011;56608;43.530;-5.652;2023-06-04T04:16:01;18.50;;;13.60;;
69414;SDS011;56608;43.530;-5.652;2023-06-04T04:17:01;18.80;;;12.80;;
69414;SDS011;56608;43.530;-5.652;2023-06-04T04:18:03;16.80;;;13.80;;
69414;SDS011;56608;43.530;-5.652;2023-06-04T04:19:04;20.62;;;12.93;;
69414;SDS011;56608;43.530;-5.652;2023-06-04T04:20:07;21.65;;;13.75;;
69414;SDS011;56608;43.530;-5.652;2023-06-04T04:21:08;17.45;;;13.05;;
69414;SDS011;56608;43.530;-5.652;2023-06-04T04:22:10;19.30;;;12.80;;
69414;SDS011;56608;43.530;-5.652;2023-06-04T04:23:11;21.30;;;13.65;;
69414;SDS011;56608;43.530;-5.652;2023-06-04T04:24:21;19.80;;;13.75;;
69414;SDS011;56608;43.530;-5.652;2023-06-04T04:25:26;18.70;;;12.80;;
69414;SDS011;56608;43.530;-5.652;2023-06-04T04:26:27;19.90;;;13.65;;
69414;SDS011;56608;43.530;-5.652;2023-06-04T04:27:28;17.37;;;14.10;;
69414;SDS011;56608;43.530;-5.652;2023-06-04T04:28:30;21.90;;;13.50;;
69414;SDS011;56608;43.530;-5.652;2023-06-04T04:29:32;22.80;;;13.05;;
69414;SDS011;56608;43.530;-5.652;2023-06-04T04:30:34;20.05;;;13.40;;
69414;SDS011;56608;43.530;-5.652;2023-06-04T04:31:36;18.70;;;13.10;;
69414;SDS011;56608;43.530;-5.652;2023-06-04T04:32:38;23.70;;;13.40;;
69414;SDS011;56608;43.530;-5.652;2023-06-04T04:33:39;18.75;;;13.60;;
69414;SDS011;56608;43.530;-5.652;2023-06-04T04:34:49;21.85;;;13.35;;
69414;SDS011;56608;43.530;-5.652;2023-06-04T04:35:52;17.10;;;12.90;;
69414;SDS011;56608;43.530;-5.652;2023-06-04T04:36:53;19.50;;;14.20;;
69414;SDS011;56608;43.530;-5.652;2023-06-04T04:37:54;26.60;;;14.35;;
69414;SDS011;56608;43.530;-5.652;2023-06-04T04:38:55;21.00;;;12.90;;
69414;SDS011;56608;43.530;-5.652;2023-06-04T04:39:56;19.30;;;13.10;;
69414;SDS011;56608;43.530;-5.652;2023-06-04T04:40:58;23.30;;;13.30;;
69414;SDS011;56608;43.530;-5.652;2023-06-04T04:42:00;24.60;;;13.90;;
69414;SDS011;56608;43.530;-5.652;2023-06-04T04:43:02;19.40;;;12.30;;
69414;SDS011;56608;43.530;-5.652;2023-06-04T04:44:03;19.90;;;13.65;;
69414;SDS011;56608;43.530;-5.652;2023-06-04T04:45:05;23.20;;;13.20;;
69414;SDS011;56608;43.530;-5.652;2023-06-04T04:46:06;20.60;;;13.30;;
69414;SDS011;56608;43.530;-5.652;2023-06-04T04:47:08;20.30;;;13.50;;
69414;SDS011;56608;43.530;-5.652;2023-06-04T04:48:09;18.65;;;13.68;;
69414;SDS011;56608;43.530;-5.652;2023-06-04T04:49:11;20.55;;;13.20;;
69414;SDS011;56608;43.530;-5.652;2023-06-04T04:50:12;20.70;;;13.65;;
69414;SDS011;56608;43.530;-5.652;2023-06-04T04:52:15;17.62;;;12.25;;
69414;SDS011;56608;43.530;-5.652;2023-06-04T04:53:15;18.40;;;13.25;;
69414;SDS011;56608;43.530;-5.652;2023-06-04T04:54:17;18.70;;;12.70;;
69414;SDS011;56608;43.530;-5.652;2023-06-04T04:55:18;21.92;;;13.40;;
69414;SDS011;56608;43.530;-5.652;2023-06-04T04:56:20;19.15;;;12.50;;
69414;SDS011;56608;43.530;-5.652;2023-06-04T04:57:22;18.10;;;12.30;;
69414;SDS011;56608;43.530;-5.652;2023-06-04T04:58:24;18.50;;;12.30;;
69414;SDS011;56608;43.530;-5.652;2023-06-04T04:59:25;22.35;;;12.32;;
69414;SDS011;56608;43.530;-5.652;2023-06-04T05:00:27;17.60;;;11.80;;
69414;SDS011;56608;43.530;-5.652;2023-06-04T05:01:28;21.80;;;13.10;;
69414;SDS011;56608;43.530;-5.652;2023-06-04T05:03:31;20.60;;;13.10;;
69414;SDS011;56608;43.530;-5.652;2023-06-04T05:04:32;19.67;;;12.10;;
69414;SDS011;56608;43.530;-5.652;2023-06-04T05:05:34;20.60;;;13.20;;
69414;SDS011;56608;43.530;-5.652;2023-06-04T05:06:36;17.73;;;12.40;;
69414;SDS011;56608;43.530;-5.652;2023-06-04T05:07:37;17.40;;;11.80;;
69414;SDS011;56608;43.530;-5.652;2023-06-04T05:08:37;17.20;;;12.50;;
69414;SDS011;56608;43.530;-5.652;2023-06-04T05:09:38;23.60;;;12.60;;
69414;SDS011;56608;43.530;-5.652;2023-06-04T05:10:41;26.00;;;13.70;;
69414;SDS011;56608;43.530;-5.652;2023-06-04T05:11:42;19.20;;;12.40;;
69414;SDS011;56608;43.530;-5.652;2023-06-04T05:12:53;23.10;;;12.60;;
69414;SDS011;56608;43.530;-5.652;2023-06-04T05:13:56;17.70;;;12.70;;
69414;SDS011;56608;43.530;-5.652;2023-06-04T05:14:57;17.75;;;12.52;;
69414;SDS011;56608;43.530;-5.652;2023-06-04T05:15:59;18.45;;;12.05;;
69414;SDS011;56608;43.530;-5.652;2023-06-04T05:17:06;22.90;;;12.60;;
69414;SDS011;56608;43.530;-5.652;2023-06-04T05:18:09;18.50;;;12.40;;
69414;SDS011;56608;43.530;-5.652;2023-06-04T05:19:10;18.40;;;12.50;;
69414;SDS011;56608;43.530;-5.652;2023-06-04T05:21:13;18.12;;;12.37;;
69414;SDS011;56608;43.530;-5.652;2023-06-04T05:22:14;18.53;;;13.03;;
69414;SDS011;56608;43.530;-5.652;2023-06-04T05:23:19;20.60;;;12.90;;
69414;SDS011;56608;43.530;-5.652;2023-06-04T05:24:20;18.17;;;12.32;;
69414;SDS011;56608;43.530;-5.652;2023-06-04T05:25:22;18.83;;;12.23;;
69414;SDS011;56608;43.530;-5.652;2023-06-04T05:26:23;17.00;;;11.65;;
69414;SDS011;56608;43.530;-5.652;2023-06-04T05:27:27;22.00;;;12.40;;
69414;SDS011;56608;43.530;-5.652;2023-06-04T05:28:28;18.10;;;11.70;;
69414;SDS011;56608;43.530;-5.652;2023-06-04T05:29:28;18.70;;;11.90;;
69414;SDS011;56608;43.530;-5.652;2023-06-04T05:30:29;17.70;;;12.20;;
69414;SDS011;56608;43.530;-5.652;2023-06-04T05:31:30;17.95;;;11.75;;
69414;SDS011;56608;43.530;-5.652;2023-06-04T05:32:33;17.80;;;12.10;;
69414;SDS011;56608;43.530;-5.652;2023-06-04T05:33:33;16.80;;;11.10;;
69414;SDS011;56608;43.530;-5.652;2023-06-04T05:34:35;16.90;;;12.10;;
69414;SDS011;56608;43.530;-5.652;2023-06-04T05:35:36;20.70;;;12.40;;
69414;SDS011;56608;43.530;-5.652;2023-06-04T05:36:41;17.90;;;12.00;;
69414;SDS011;56608;43.530;-5.652;2023-06-04T05:37:42;19.50;;;12.80;;
69414;SDS011;56608;43.530;-5.652;2023-06-04T05:38:45;20.50;;;11.70;;
69414;SDS011;56608;43.530;-5.652;2023-06-04T05:39:46;19.50;;;11.95;;
69414;SDS011;56608;43.530;-5.652;2023-06-04T05:40:47;19.40;;;12.10;;
69414;SDS011;56608;43.530;-5.652;2023-06-04T05:41:48;19.80;;;12.80;;
69414;SDS011;56608;43.530;-5.652;2023-06-04T05:42:49;15.30;;;11.85;;
69414;SDS011;56608;43.530;-5.652;2023-06-04T05:43:50;18.10;;;11.75;;
69414;SDS011;56608;43.530;-5.652;2023-06-04T05:44:51;17.10;;;12.40;;
69414;SDS011;56608;43.530;-5.652;2023-06-04T05:45:52;18.15;;;12.45;;
69414;SDS011;56608;43.530;-5.652;2023-06-04T05:46:53;18.25;;;12.25;;
69414;SDS011;56608;43.530;-5.652;2023-06-04T05:47:53;22.90;;;12.20;;
69414;SDS011;56608;43.530;-5.652;2023-06-04T05:48:54;19.80;;;13.10;;
69414;SDS011;56608;43.530;-5.652;2023-06-04T05:49:56;19.35;;;13.00;;
69414;SDS011;56608;43.530;-5.652;2023-06-04T05:50:56;19.60;;;13.70;;
69414;SDS011;56608;43.530;-5.652;2023-06-04T05:51:57;20.30;;;12.50;;
69414;SDS011;56608;43.530;-5.652;2023-06-04T05:52:58;19.30;;;12.90;;
69414;SDS011;56608;43.530;-5.652;2023-06-04T05:53:59;21.25;;;12.45;;
69414;SDS011;56608;43.530;-5.652;2023-06-04T05:54:59;20.70;;;12.30;;
69414;SDS011;56608;43.530;-5.652;2023-06-04T05:56:00;19.60;;;12.70;;
69414;SDS011;56608;43.530;-5.652;2023-06-04T05:57:00;22.10;;;12.40;;
69414;SDS011;56608;43.530;-5.652;2023-06-04T05:58:02;19.30;;;12.47;;
69414;SDS011;56608;43.530;-5.652;2023-06-04T05:59:03;19.50;;;12.50;;
69414;SDS011;56608;43.530;-5.652;2023-06-04T06:00:05;18.75;;;12.43;;
69414;SDS011;56608;43.530;-5.652;2023-06-04T06:01:09;20.30;;;13.25;;
69414;SDS011;56608;43.530;-5.652;2023-06-04T06:02:10;21.63;;;13.67;;
69414;SDS011;56608;43.530;-5.652;2023-06-04T06:03:11;17.37;;;11.80;;
69414;SDS011;56608;43.530;-5.652;2023-06-04T06:04:12;22.40;;;12.70;;
69414;SDS011;56608;43.530;-5.652;2023-06-04T06:05:13;22.47;;;12.73;;
69414;SDS011;56608;43.530;-5.652;2023-06-04T06:06:15;20.45;;;12.52;;
69414;SDS011;56608;43.530;-5.652;2023-06-04T06:07:16;18.62;;;12.25;;